createdAt,value
2019-04-26T00:03:53.089Z,13.70
2019-04-26T00:09:57.436Z,13.60
2019-04-26T00:16:11.585Z,13.60
2019-04-26T00:22:15.288Z,13.50
2019-04-26T00:28:17.534Z,13.40
2019-04-26T00:34:19.731Z,13.30
2019-04-26T00:40:22.428Z,13.20
2019-04-26T00:46:27.279Z,13.10
2019-04-26T00:52:30.247Z,13.10
2019-04-26T00:58:33.614Z,13.00
2019-04-26T01:04:36.027Z,12.90
2019-04-26T01:10:38.338Z,12.80
2019-04-26T01:16:40.666Z,12.90
2019-04-26T01:22:47.774Z,13.00
2019-04-26T01:28:57.050Z,13.20
2019-04-26T01:34:59.164Z,13.00
2019-04-26T01:41:04.106Z,12.90
2019-04-26T01:47:06.315Z,13.10
2019-04-26T01:53:08.778Z,13.20
2019-04-26T01:59:13.543Z,13.20
2019-04-26T02:05:20.307Z,13.10
2019-04-26T02:11:24.089Z,13.00
2019-04-26T02:17:27.300Z,12.70
2019-04-26T02:23:32.069Z,12.70
2019-04-26T02:29:35.336Z,12.60
2019-04-26T02:35:37.513Z,12.50
2019-04-26T02:41:39.742Z,12.40
2019-04-26T02:47:56.241Z,12.30
2019-04-26T02:54:11.764Z,12.50
2019-04-26T03:00:17.028Z,12.40
2019-04-26T03:06:19.172Z,12.40
2019-04-26T03:12:26.300Z,12.30
2019-04-26T03:18:38.839Z,12.30
2019-04-26T03:25:00.777Z,12.30
2019-04-26T03:31:42.819Z,12.40
2019-04-26T03:37:50.922Z,12.50
2019-04-26T03:44:02.655Z,12.50
2019-04-26T03:50:14.163Z,12.50
2019-04-26T03:56:51.817Z,12.50
2019-04-26T04:03:08.303Z,12.50
2019-04-26T04:09:11.215Z,12.60
2019-04-26T04:15:19.979Z,12.70
2019-04-26T04:21:37.484Z,12.70
2019-04-26T04:27:49.861Z,12.80
2019-04-26T04:34:05.391Z,12.80
2019-04-26T04:40:36.560Z,12.90
2019-04-26T04:47:34.103Z,13.10
2019-04-26T04:54:23.955Z,13.30
2019-04-26T05:00:54.842Z,13.50
2019-04-26T05:07:45.959Z,13.60
2019-04-26T05:14:12.064Z,13.70
2019-04-26T05:20:31.136Z,13.90
2019-04-26T05:27:02.409Z,14.00
2019-04-26T05:33:36.595Z,14.10
2019-04-26T05:39:51.591Z,14.30
2019-04-26T05:46:29.037Z,14.50
2019-04-26T05:53:44.856Z,14.90
2019-04-26T06:00:02.485Z,15.40
2019-04-26T06:06:34.516Z,16.20
2019-04-26T06:13:20.495Z,16.40
2019-04-26T06:19:48.694Z,16.80
2019-04-26T06:26:26.520Z,18.00
2019-04-26T06:32:38.733Z,18.20
2019-04-26T06:39:20.075Z,19.00
2019-04-26T06:46:15.927Z,20.10
2019-04-26T06:52:21.823Z,20.70
2019-04-26T06:58:57.969Z,21.30
2019-04-26T07:05:15.077Z,21.10
2019-04-26T07:11:50.093Z,21.00
2019-04-26T07:18:28.122Z,21.40
2019-04-26T07:25:09.026Z,21.40
2019-04-26T07:31:52.602Z,21.70
2019-04-26T07:38:53.647Z,21.80
2019-04-26T07:45:10.954Z,21.70
2019-04-26T07:52:09.100Z,21.60
2019-04-26T07:58:47.063Z,21.70
2019-04-26T08:05:00.612Z,21.40
2019-04-26T08:11:15.328Z,21.50
2019-04-26T08:17:24.553Z,21.50
2019-04-26T08:23:42.174Z,21.60
2019-04-26T08:29:41.093Z,21.50
2019-04-26T08:35:48.976Z,21.30
2019-04-26T08:41:53.570Z,21.40
2019-04-26T08:47:58.618Z,21.60
2019-04-26T08:54:04.562Z,21.70
2019-04-26T09:00:12.482Z,21.90
2019-04-26T09:06:30.696Z,21.90
2019-04-26T09:12:35.647Z,22.10
2019-04-26T09:18:43.665Z,22.20
2019-04-26T09:24:50.055Z,22.40
2019-04-26T09:30:54.295Z,22.60
2019-04-26T09:36:57.722Z,23.10
2019-04-26T09:43:10.422Z,23.40
2019-04-26T09:49:25.960Z,23.80
2019-04-26T09:55:35.121Z,24.10
2019-04-26T10:01:33.211Z,24.20
2019-04-26T10:07:37.496Z,24.40
2019-04-26T10:13:41.280Z,24.70
2019-04-26T10:19:48.290Z,25.30
2019-04-26T10:25:52.020Z,25.70
2019-04-26T10:31:54.553Z,26.00
2019-04-26T10:37:56.764Z,26.20
2019-04-26T10:43:58.962Z,26.20
2019-04-26T10:50:01.244Z,26.00
2019-04-26T10:56:24.234Z,26.00
2019-04-26T11:02:26.414Z,26.20
2019-04-26T11:08:29.020Z,25.90
2019-04-26T11:14:31.237Z,25.40
2019-04-26T11:20:33.587Z,24.90
2019-04-26T11:26:36.252Z,24.40
2019-04-26T11:32:38.703Z,23.90
2019-04-26T11:38:43.053Z,23.60
2019-04-26T11:44:45.277Z,23.00
2019-04-26T11:50:48.179Z,22.80
2019-04-26T11:56:52.663Z,22.50
2019-04-26T12:02:54.872Z,22.10
2019-04-26T12:08:58.947Z,21.90
2019-04-26T12:15:03.761Z,21.70
2019-04-26T12:21:05.208Z,21.50
2019-04-26T12:27:10.121Z,21.40
2019-04-26T12:33:11.783Z,21.20
2019-04-26T12:39:17.688Z,20.90
2019-04-26T12:45:23.916Z,20.70
2019-04-26T12:51:26.318Z,20.40
2019-04-26T12:57:30.519Z,20.20
2019-04-26T13:03:33.451Z,20.20
2019-04-26T13:09:37.559Z,20.30
2019-04-26T13:16:00.326Z,20.40
2019-04-26T13:22:02.572Z,20.60
2019-04-26T13:28:04.758Z,20.90
2019-04-26T13:34:06.993Z,20.90
2019-04-26T13:40:12.408Z,20.80
2019-04-26T13:46:19.167Z,20.90
2019-04-26T13:52:21.416Z,20.90
2019-04-26T13:58:25.595Z,20.90
2019-04-26T14:04:27.666Z,21.00
2019-04-26T14:10:29.911Z,21.20
2019-04-26T14:16:32.164Z,21.50
2019-04-26T14:22:42.463Z,22.00
2019-04-26T14:28:44.842Z,22.60
2019-04-26T14:34:47.194Z,22.60
2019-04-26T14:41:03.213Z,22.30
2019-04-26T14:46:56.774Z,22.10
2019-04-26T14:53:02.347Z,21.50
2019-04-26T14:59:08.306Z,20.80
2019-04-26T15:05:12.288Z,20.20
2019-04-26T15:11:14.639Z,19.70
2019-04-26T15:17:20.109Z,19.60
2019-04-26T15:23:23.832Z,19.80
2019-04-26T15:29:27.010Z,19.70
2019-04-26T15:35:32.628Z,19.00
2019-04-26T15:41:40.493Z,18.30
2019-04-26T15:47:47.460Z,17.70
2019-04-26T15:53:49.852Z,17.30
2019-04-26T15:59:54.407Z,16.80
2019-04-26T16:05:59.223Z,16.50
2019-04-26T16:12:00.847Z,15.90
2019-04-26T16:18:04.236Z,15.60
2019-04-26T16:24:06.526Z,15.30
2019-04-26T16:30:20.702Z,14.90
2019-04-26T16:36:24.002Z,14.40
2019-04-26T16:42:28.467Z,14.00
2019-04-26T16:48:30.767Z,13.70
2019-04-26T16:54:34.236Z,13.60
2019-04-26T17:00:50.256Z,13.40
2019-04-26T17:06:44.931Z,13.30
2019-04-26T17:12:46.291Z,13.00
2019-04-26T17:18:50.128Z,12.80
2019-04-26T17:24:56.942Z,12.60
2019-04-26T17:30:59.218Z,12.40
2019-04-26T17:37:02.520Z,12.40
2019-04-26T17:43:09.744Z,12.30
2019-04-26T17:49:11.480Z,12.30
2019-04-26T17:55:14.875Z,12.30
2019-04-26T18:01:41.201Z,12.20
2019-04-26T18:07:40.169Z,12.10
2019-04-26T18:13:25.974Z,12.00
2019-04-26T18:19:36.007Z,12.00
2019-04-26T18:25:41.284Z,11.90
2019-04-26T18:31:43.833Z,11.80
2019-04-26T18:37:46.404Z,11.60
2019-04-26T18:43:54.072Z,11.50
2019-04-26T18:49:58.150Z,11.40
2019-04-26T18:56:03.451Z,11.50
2019-04-26T19:02:04.755Z,11.40
2019-04-26T19:08:09.423Z,11.30
2019-04-26T19:14:25.496Z,11.10
2019-04-26T19:20:46.339Z,11.00
2019-04-26T19:26:49.936Z,10.90
2019-04-26T19:32:53.934Z,10.90
2019-04-26T19:38:56.243Z,10.90
2019-04-26T19:45:11.947Z,10.80
2019-04-26T19:51:04.408Z,10.80
2019-04-26T19:57:28.206Z,10.70
2019-04-26T20:03:32.069Z,10.70
2019-04-26T20:09:34.765Z,10.60
2019-04-26T20:15:37.011Z,10.60
2019-04-26T20:21:41.221Z,10.60
2019-04-26T20:27:43.563Z,10.70
2019-04-26T20:33:47.791Z,10.70
2019-04-26T20:39:55.892Z,10.70
2019-04-26T20:46:11.048Z,10.80
2019-04-26T20:51:58.528Z,10.90
2019-04-26T20:58:05.691Z,10.90
2019-04-26T21:04:06.144Z,10.90
2019-04-26T21:10:08.553Z,10.80
2019-04-26T21:16:15.034Z,10.70
2019-04-26T21:22:18.284Z,10.60
2019-04-26T21:28:33.079Z,10.50
2019-04-26T21:34:37.170Z,10.50
2019-04-26T21:40:44.331Z,10.40
2019-04-26T21:46:49.568Z,10.50
2019-04-26T21:52:50.530Z,10.60
2019-04-26T21:58:53.343Z,10.70
2019-04-26T22:04:55.739Z,10.80
2019-04-26T22:10:58.295Z,10.60
2019-04-26T22:17:05.261Z,10.70
2019-04-26T22:23:11.531Z,10.80
2019-04-26T22:29:16.846Z,10.80
2019-04-26T22:35:21.357Z,10.80
2019-04-26T22:41:24.450Z,10.80
2019-04-26T22:47:42.455Z,10.80
2019-04-26T22:53:43.381Z,10.80
2019-04-26T22:59:50.141Z,10.90
2019-04-26T23:05:49.876Z,10.90
2019-04-26T23:12:06.269Z,10.90
2019-04-26T23:18:25.363Z,10.90
2019-04-26T23:24:27.483Z,10.80
2019-04-26T23:30:31.729Z,10.70
2019-04-26T23:36:34.884Z,10.80
2019-04-26T23:42:37.235Z,10.80
2019-04-26T23:48:42.735Z,10.80
2019-04-26T23:54:43.407Z,10.90
